sensor_id;sensor_type;location;lat;lon;timestamp;temperature;humidity
4651;DHT22;2338;49.602;8.722;2023-05-07T00:00:14;14.70;99.90
4651;DHT22;2338;49.602;8.722;2023-05-07T00:03:02;14.60;99.90
4651;DHT22;2338;49.602;8.722;2023-05-07T00:05:47;14.60;99.90
4651;DHT22;2338;49.602;8.722;2023-05-07T00:08:34;14.50;99.90
4651;DHT22;2338;49.602;8.722;2023-05-07T00:11:19;14.60;99.90
4651;DHT22;2338;49.602;8.722;2023-05-07T00:14:05;14.60;99.90
4651;DHT22;2338;49.602;8.722;2023-05-07T00:16:50;14.40;99.90
4651;DHT22;2338;49.602;8.722;2023-05-07T00:19:36;14.40;99.90
4651;DHT22;2338;49.602;8.722;2023-05-07T00:22:22;14.40;99.90
4651;DHT22;2338;49.602;8.722;2023-05-07T00:25:09;14.40;99.90
4651;DHT22;2338;49.602;8.722;2023-05-07T00:27:54;14.30;99.90
4651;DHT22;2338;49.602;8.722;2023-05-07T00:30:41;14.30;99.90
4651;DHT22;2338;49.602;8.722;2023-05-07T00:33:27;14.40;99.90
4651;DHT22;2338;49.602;8.722;2023-05-07T00:36:12;14.30;99.90
4651;DHT22;2338;49.602;8.722;2023-05-07T00:38:59;14.20;99.90
4651;DHT22;2338;49.602;8.722;2023-05-07T00:41:47;14.20;99.90
4651;DHT22;2338;49.602;8.722;2023-05-07T00:44:33;14.20;99.90
4651;DHT22;2338;49.602;8.722;2023-05-07T00:47:19;14.10;99.90
4651;DHT22;2338;49.602;8.722;2023-05-07T00:50:05;14.00;99.90
4651;DHT22;2338;49.602;8.722;2023-05-07T00:52:51;14.10;99.90
4651;DHT22;2338;49.602;8.722;2023-05-07T00:55:36;14.10;99.90
4651;DHT22;2338;49.602;8.722;2023-05-07T00:58:24;14.10;99.90
4651;DHT22;2338;49.602;8.722;2023-05-07T01:01:09;14.00;99.90
4651;DHT22;2338;49.602;8.722;2023-05-07T01:03:54;13.90;99.90
4651;DHT22;2338;49.602;8.722;2023-05-07T01:06:40;13.90;99.90
4651;DHT22;2338;49.602;8.722;2023-05-07T01:09:27;14.00;99.90
4651;DHT22;2338;49.602;8.722;2023-05-07T01:12:13;14.00;99.90
4651;DHT22;2338;49.602;8.722;2023-05-07T01:15:00;13.90;99.90
4651;DHT22;2338;49.602;8.722;2023-05-07T01:17:46;13.80;99.90
4651;DHT22;2338;49.602;8.722;2023-05-07T01:20:32;13.80;99.90
4651;DHT22;2338;49.602;8.722;2023-05-07T01:23:19;13.70;99.90
4651;DHT22;2338;49.602;8.722;2023-05-07T01:26:04;13.80;99.90
4651;DHT22;2338;49.602;8.722;2023-05-07T01:28:51;13.80;99.90
4651;DHT22;2338;49.602;8.722;2023-05-07T01:31:37;13.70;99.90
4651;DHT22;2338;49.602;8.722;2023-05-07T01:34:25;13.60;99.90
4651;DHT22;2338;49.602;8.722;2023-05-07T01:37:11;13.50;99.90
4651;DHT22;2338;49.602;8.722;2023-05-07T01:39:58;13.50;99.90
4651;DHT22;2338;49.602;8.722;2023-05-07T01:42:44;13.50;99.90
4651;DHT22;2338;49.602;8.722;2023-05-07T01:45:31;13.50;99.90
4651;DHT22;2338;49.602;8.722;2023-05-07T01:48:18;13.50;99.90
4651;DHT22;2338;49.602;8.722;2023-05-07T01:51:04;13.50;99.90
4651;DHT22;2338;49.602;8.722;2023-05-07T01:53:49;13.60;99.90
4651;DHT22;2338;49.602;8.722;2023-05-07T01:56:36;13.60;99.90
4651;DHT22;2338;49.602;8.722;2023-05-07T01:59:22;13.50;99.90
4651;DHT22;2338;49.602;8.722;2023-05-07T02:02:07;13.50;99.90
4651;DHT22;2338;49.602;8.722;2023-05-07T02:04:53;13.50;99.90
4651;DHT22;2338;49.602;8.722;2023-05-07T02:07:38;13.40;99.90
4651;DHT22;2338;49.602;8.722;2023-05-07T02:10:24;13.40;99.90
4651;DHT22;2338;49.602;8.722;2023-05-07T02:13:10;13.40;99.90
4651;DHT22;2338;49.602;8.722;2023-05-07T02:15:56;13.30;99.90
4651;DHT22;2338;49.602;8.722;2023-05-07T02:18:42;13.40;99.90
4651;DHT22;2338;49.602;8.722;2023-05-07T02:21:27;13.40;99.90
4651;DHT22;2338;49.602;8.722;2023-05-07T02:24:14;13.40;99.90
4651;DHT22;2338;49.602;8.722;2023-05-07T02:26:59;13.40;99.90
4651;DHT22;2338;49.602;8.722;2023-05-07T02:29:46;13.40;99.90
4651;DHT22;2338;49.602;8.722;2023-05-07T02:32:32;13.40;99.90
4651;DHT22;2338;49.602;8.722;2023-05-07T02:35:17;13.50;99.90
4651;DHT22;2338;49.602;8.722;2023-05-07T02:38:02;13.40;99.90
4651;DHT22;2338;49.602;8.722;2023-05-07T02:40:48;13.40;99.90
4651;DHT22;2338;49.602;8.722;2023-05-07T02:43:34;13.40;99.90
4651;DHT22;2338;49.602;8.722;2023-05-07T02:46:21;13.40;99.90
4651;DHT22;2338;49.602;8.722;2023-05-07T02:49:06;13.30;99.90
4651;DHT22;2338;49.602;8.722;2023-05-07T02:51:52;13.30;99.90
4651;DHT22;2338;49.602;8.722;2023-05-07T02:54:37;13.30;99.90
4651;DHT22;2338;49.602;8.722;2023-05-07T02:57:23;13.40;99.90
4651;DHT22;2338;49.602;8.722;2023-05-07T03:00:13;13.30;99.90
4651;DHT22;2338;49.602;8.722;2023-05-07T03:03:00;13.30;99.90
4651;DHT22;2338;49.602;8.722;2023-05-07T03:05:46;13.30;99.90
4651;DHT22;2338;49.602;8.722;2023-05-07T03:08:31;13.30;99.90
4651;DHT22;2338;49.602;8.722;2023-05-07T03:11:17;13.20;99.90
4651;DHT22;2338;49.602;8.722;2023-05-07T03:14:02;13.20;99.90
4651;DHT22;2338;49.602;8.722;2023-05-07T03:16:49;13.30;99.90
4651;DHT22;2338;49.602;8.722;2023-05-07T03:19:36;13.30;99.90
4651;DHT22;2338;49.602;8.722;2023-05-07T03:22:21;13.40;99.90
4651;DHT22;2338;49.602;8.722;2023-05-07T03:25:08;13.40;99.90
4651;DHT22;2338;49.602;8.722;2023-05-07T03:27:53;13.30;99.90
4651;DHT22;2338;49.602;8.722;2023-05-07T03:30:39;13.20;99.90
4651;DHT22;2338;49.602;8.722;2023-05-07T03:33:24;13.20;99.90
4651;DHT22;2338;49.602;8.722;2023-05-07T03:36:12;13.20;99.90
4651;DHT22;2338;49.602;8.722;2023-05-07T03:38:58;13.20;99.90
4651;DHT22;2338;49.602;8.722;2023-05-07T03:41:43;13.10;99.90
4651;DHT22;2338;49.602;8.722;2023-05-07T03:44:29;13.20;99.90
4651;DHT22;2338;49.602;8.722;2023-05-07T03:47:14;13.20;99.90
4651;DHT22;2338;49.602;8.722;2023-05-07T03:50:00;13.10;99.90
4651;DHT22;2338;49.602;8.722;2023-05-07T03:52:47;13.00;99.90
4651;DHT22;2338;49.602;8.722;2023-05-07T03:55:32;13.00;99.90
4651;DHT22;2338;49.602;8.722;2023-05-07T03:58:18;13.00;99.90
4651;DHT22;2338;49.602;8.722;2023-05-07T04:01:03;13.00;99.90
4651;DHT22;2338;49.602;8.722;2023-05-07T04:03:48;13.00;99.90
4651;DHT22;2338;49.602;8.722;2023-05-07T04:06:34;12.90;99.90
4651;DHT22;2338;49.602;8.722;2023-05-07T04:09:21;13.00;99.90
4651;DHT22;2338;49.602;8.722;2023-05-07T04:12:06;12.90;99.90
4651;DHT22;2338;49.602;8.722;2023-05-07T04:14:52;12.80;99.90
4651;DHT22;2338;49.602;8.722;2023-05-07T04:17:38;12.80;99.90
4651;DHT22;2338;49.602;8.722;2023-05-07T04:20:23;12.80;99.90
4651;DHT22;2338;49.602;8.722;2023-05-07T04:23:09;12.80;99.90
4651;DHT22;2338;49.602;8.722;2023-05-07T04:25:56;12.80;99.90
4651;DHT22;2338;49.602;8.722;2023-05-07T04:28:41;12.80;99.90
4651;DHT22;2338;49.602;8.722;2023-05-07T04:31:27;12.80;99.90
4651;DHT22;2338;49.602;8.722;2023-05-07T04:34:12;12.80;99.90
4651;DHT22;2338;49.602;8.722;2023-05-07T04:36:59;12.90;99.90
4651;DHT22;2338;49.602;8.722;2023-05-07T04:39:44;12.90;99.90
4651;DHT22;2338;49.602;8.722;2023-05-07T04:42:31;12.90;99.90
4651;DHT22;2338;49.602;8.722;2023-05-07T04:45:16;13.00;99.90
4651;DHT22;2338;49.602;8.722;2023-05-07T04:48:02;13.10;99.90
4651;DHT22;2338;49.602;8.722;2023-05-07T04:50:48;13.10;99.90
4651;DHT22;2338;49.602;8.722;2023-05-07T04:53:33;13.20;99.90
4651;DHT22;2338;49.602;8.722;2023-05-07T04:56:19;13.20;99.90
4651;DHT22;2338;49.602;8.722;2023-05-07T04:59:05;13.20;99.90
4651;DHT22;2338;49.602;8.722;2023-05-07T05:01:51;13.30;99.90
4651;DHT22;2338;49.602;8.722;2023-05-07T05:04:36;13.30;99.90
4651;DHT22;2338;49.602;8.722;2023-05-07T05:07:21;13.40;99.90
4651;DHT22;2338;49.602;8.722;2023-05-07T05:10:07;13.40;99.90
4651;DHT22;2338;49.602;8.722;2023-05-07T05:12:52;13.50;99.90
4651;DHT22;2338;49.602;8.722;2023-05-07T05:15:39;13.50;99.90
4651;DHT22;2338;49.602;8.722;2023-05-07T05:18:25;13.60;99.90
4651;DHT22;2338;49.602;8.722;2023-05-07T05:21:10;13.60;99.90
4651;DHT22;2338;49.602;8.722;2023-05-07T05:23:56;13.70;99.90
4651;DHT22;2338;49.602;8.722;2023-05-07T05:26:41;13.70;99.90
4651;DHT22;2338;49.602;8.722;2023-05-07T05:29:27;13.80;99.90
4651;DHT22;2338;49.602;8.722;2023-05-07T05:32:14;13.90;99.90
4651;DHT22;2338;49.602;8.722;2023-05-07T05:34:59;13.90;99.90
4651;DHT22;2338;49.602;8.722;2023-05-07T05:37:45;14.10;99.90
4651;DHT22;2338;49.602;8.722;2023-05-07T05:40:30;14.10;99.90
4651;DHT22;2338;49.602;8.722;2023-05-07T05:43:16;14.20;99.90
4651;DHT22;2338;49.602;8.722;2023-05-07T05:46:02;14.30;99.90
4651;DHT22;2338;49.602;8.722;2023-05-07T05:48:49;14.40;99.90
4651;DHT22;2338;49.602;8.722;2023-05-07T05:51:35;14.50;99.90
4651;DHT22;2338;49.602;8.722;2023-05-07T05:54:20;14.60;99.90
4651;DHT22;2338;49.602;8.722;2023-05-07T05:57:06;14.60;99.90
4651;DHT22;2338;49.602;8.722;2023-05-07T05:59:51;14.80;99.90
4651;DHT22;2338;49.602;8.722;2023-05-07T06:02:37;14.80;99.90
4651;DHT22;2338;49.602;8.722;2023-05-07T06:05:24;14.80;99.90
4651;DHT22;2338;49.602;8.722;2023-05-07T06:08:09;15.00;99.90
4651;DHT22;2338;49.602;8.722;2023-05-07T06:10:55;15.10;99.90
4651;DHT22;2338;49.602;8.722;2023-05-07T06:13:40;15.10;99.90
4651;DHT22;2338;49.602;8.722;2023-05-07T06:16:26;15.10;99.90
4651;DHT22;2338;49.602;8.722;2023-05-07T06:19:11;15.20;99.90
4651;DHT22;2338;49.602;8.722;2023-05-07T06:21:58;15.30;99.90
4651;DHT22;2338;49.602;8.722;2023-05-07T06:24:45;15.40;99.90
4651;DHT22;2338;49.602;8.722;2023-05-07T06:27:30;15.50;99.90
4651;DHT22;2338;49.602;8.722;2023-05-07T06:30:16;15.60;99.90
4651;DHT22;2338;49.602;8.722;2023-05-07T06:33:01;15.70;99.90
4651;DHT22;2338;49.602;8.722;2023-05-07T06:35:47;15.70;99.90
4651;DHT22;2338;49.602;8.722;2023-05-07T06:38:34;15.80;99.90
4651;DHT22;2338;49.602;8.722;2023-05-07T06:41:19;15.90;99.90
4651;DHT22;2338;49.602;8.722;2023-05-07T06:44:05;16.00;99.90
4651;DHT22;2338;49.602;8.722;2023-05-07T06:46:51;16.00;99.90
4651;DHT22;2338;49.602;8.722;2023-05-07T06:49:36;16.10;99.90
4651;DHT22;2338;49.602;8.722;2023-05-07T06:52:22;16.20;99.90
4651;DHT22;2338;49.602;8.722;2023-05-07T06:55:09;16.30;99.90
4651;DHT22;2338;49.602;8.722;2023-05-07T06:57:55;16.30;99.90
4651;DHT22;2338;49.602;8.722;2023-05-07T07:00:42;16.40;99.90
4651;DHT22;2338;49.602;8.722;2023-05-07T07:03:27;16.50;99.90
4651;DHT22;2338;49.602;8.722;2023-05-07T07:06:13;16.60;99.90
4651;DHT22;2338;49.602;8.722;2023-05-07T07:08:58;16.70;99.90
4651;DHT22;2338;49.602;8.722;2023-05-07T07:11:46;16.90;99.90
4651;DHT22;2338;49.602;8.722;2023-05-07T07:14:31;17.00;99.90
4651;DHT22;2338;49.602;8.722;2023-05-07T07:17:17;17.10;99.90
4651;DHT22;2338;49.602;8.722;2023-05-07T07:20:03;17.20;99.90
4651;DHT22;2338;49.602;8.722;2023-05-07T07:22:48;17.30;99.90
4651;DHT22;2338;49.602;8.722;2023-05-07T07:25:34;17.50;99.90
4651;DHT22;2338;49.602;8.722;2023-05-07T07:28:22;17.60;99.90
4651;DHT22;2338;49.602;8.722;2023-05-07T07:31:07;17.70;99.90
4651;DHT22;2338;49.602;8.722;2023-05-07T07:33:53;17.70;99.90
4651;DHT22;2338;49.602;8.722;2023-05-07T07:36:39;17.80;99.90
4651;DHT22;2338;49.602;8.722;2023-05-07T07:39:24;17.90;99.90
4651;DHT22;2338;49.602;8.722;2023-05-07T07:42:10;17.90;99.90
4651;DHT22;2338;49.602;8.722;2023-05-07T07:44:56;18.00;99.90
4651;DHT22;2338;49.602;8.722;2023-05-07T07:47:42;18.10;99.90
4651;DHT22;2338;49.602;8.722;2023-05-07T07:50:27;18.20;99.90
4651;DHT22;2338;49.602;8.722;2023-05-07T07:53:13;18.30;99.90
4651;DHT22;2338;49.602;8.722;2023-05-07T07:55:58;18.50;99.90
4651;DHT22;2338;49.602;8.722;2023-05-07T07:58:44;18.60;99.90
4651;DHT22;2338;49.602;8.722;2023-05-07T08:01:31;18.70;99.90
4651;DHT22;2338;49.602;8.722;2023-05-07T08:04:16;18.90;99.90
4651;DHT22;2338;49.602;8.722;2023-05-07T08:07:02;18.90;99.90
4651;DHT22;2338;49.602;8.722;2023-05-07T08:09:48;19.00;99.90
4651;DHT22;2338;49.602;8.722;2023-05-07T08:12:33;19.00;99.90
4651;DHT22;2338;49.602;8.722;2023-05-07T08:15:19;19.00;99.90
4651;DHT22;2338;49.602;8.722;2023-05-07T08:18:05;19.00;99.90
4651;DHT22;2338;49.602;8.722;2023-05-07T08:20:51;19.00;99.90
4651;DHT22;2338;49.602;8.722;2023-05-07T08:23:36;19.00;99.90
4651;DHT22;2338;49.602;8.722;2023-05-07T08:26:22;19.00;99.90
4651;DHT22;2338;49.602;8.722;2023-05-07T08:29:08;19.00;99.90
4651;DHT22;2338;49.602;8.722;2023-05-07T08:31:53;18.90;99.90
4651;DHT22;2338;49.602;8.722;2023-05-07T08:34:40;18.90;99.90
4651;DHT22;2338;49.602;8.722;2023-05-07T08:37:26;18.90;99.90
4651;DHT22;2338;49.602;8.722;2023-05-07T08:40:11;18.90;99.90
4651;DHT22;2338;49.602;8.722;2023-05-07T08:42:57;18.90;99.90
4651;DHT22;2338;49.602;8.722;2023-05-07T08:45:45;18.90;99.90
4651;DHT22;2338;49.602;8.722;2023-05-07T08:48:31;18.90;99.90
4651;DHT22;2338;49.602;8.722;2023-05-07T08:51:20;18.90;99.90
4651;DHT22;2338;49.602;8.722;2023-05-07T08:54:06;18.90;99.90
4651;DHT22;2338;49.602;8.722;2023-05-07T08:56:52;19.00;99.90
4651;DHT22;2338;49.602;8.722;2023-05-07T08:59:38;19.00;99.90
4651;DHT22;2338;49.602;8.722;2023-05-07T09:02:23;19.00;99.90
4651;DHT22;2338;49.602;8.722;2023-05-07T09:05:09;19.00;99.90
4651;DHT22;2338;49.602;8.722;2023-05-07T09:07:59;19.00;99.90
4651;DHT22;2338;49.602;8.722;2023-05-07T09:10:44;19.10;99.90
4651;DHT22;2338;49.602;8.722;2023-05-07T09:13:30;19.10;99.90
4651;DHT22;2338;49.602;8.722;2023-05-07T09:16:15;19.20;99.90
4651;DHT22;2338;49.602;8.722;2023-05-07T09:19:01;19.10;99.90
4651;DHT22;2338;49.602;8.722;2023-05-07T09:21:46;19.20;99.90
4651;DHT22;2338;49.602;8.722;2023-05-07T09:24:33;19.30;99.90
4651;DHT22;2338;49.602;8.722;2023-05-07T09:27:21;19.50;99.90
4651;DHT22;2338;49.602;8.722;2023-05-07T09:30:08;19.70;99.90
4651;DHT22;2338;49.602;8.722;2023-05-07T09:32:53;19.80;99.90
4651;DHT22;2338;49.602;8.722;2023-05-07T09:35:39;19.90;99.90
4651;DHT22;2338;49.602;8.722;2023-05-07T09:38:25;20.10;99.90
4651;DHT22;2338;49.602;8.722;2023-05-07T09:41:14;20.30;99.90
4651;DHT22;2338;49.602;8.722;2023-05-07T09:43:59;20.40;99.90
4651;DHT22;2338;49.602;8.722;2023-05-07T09:46:47;20.50;99.90
4651;DHT22;2338;49.602;8.722;2023-05-07T09:49:39;20.70;99.90
4651;DHT22;2338;49.602;8.722;2023-05-07T09:52:26;20.70;99.90
4651;DHT22;2338;49.602;8.722;2023-05-07T09:55:17;20.70;99.90
4651;DHT22;2338;49.602;8.722;2023-05-07T09:58:05;20.60;99.90
4651;DHT22;2338;49.602;8.722;2023-05-07T10:00:52;20.50;99.90
4651;DHT22;2338;49.602;8.722;2023-05-07T10:03:39;20.60;99.90
4651;DHT22;2338;49.602;8.722;2023-05-07T10:06:25;20.50;99.90
4651;DHT22;2338;49.602;8.722;2023-05-07T10:09:11;20.50;99.90
4651;DHT22;2338;49.602;8.722;2023-05-07T10:11:57;20.60;99.90
4651;DHT22;2338;49.602;8.722;2023-05-07T10:14:45;20.60;99.90
4651;DHT22;2338;49.602;8.722;2023-05-07T10:17:32;20.70;99.90
4651;DHT22;2338;49.602;8.722;2023-05-07T10:20:17;20.70;99.90
4651;DHT22;2338;49.602;8.722;2023-05-07T10:23:07;20.80;99.90
4651;DHT22;2338;49.602;8.722;2023-05-07T10:25:54;20.90;99.90
4651;DHT22;2338;49.602;8.722;2023-05-07T10:28:44;21.00;99.90
4651;DHT22;2338;49.602;8.722;2023-05-07T10:31:46;21.10;99.90
4651;DHT22;2338;49.602;8.722;2023-05-07T10:34:37;21.30;99.90
4651;DHT22;2338;49.602;8.722;2023-05-07T10:37:24;21.60;99.90
4651;DHT22;2338;49.602;8.722;2023-05-07T10:40:10;21.80;96.30
4651;DHT22;2338;49.602;8.722;2023-05-07T10:42:57;22.00;98.20
4651;DHT22;2338;49.602;8.722;2023-05-07T10:45:43;22.20;94.50
4651;DHT22;2338;49.602;8.722;2023-05-07T10:48:30;22.30;91.70
4651;DHT22;2338;49.602;8.722;2023-05-07T10:51:21;22.50;90.00
4651;DHT22;2338;49.602;8.722;2023-05-07T10:54:20;22.60;89.10
4651;DHT22;2338;49.602;8.722;2023-05-07T10:57:32;22.90;83.40
4651;DHT22;2338;49.602;8.722;2023-05-07T11:00:42;23.10;73.70
4651;DHT22;2338;49.602;8.722;2023-05-07T11:03:30;23.30;75.70
4651;DHT22;2338;49.602;8.722;2023-05-07T11:06:16;23.40;72.60
4651;DHT22;2338;49.602;8.722;2023-05-07T11:09:01;23.20;62.40
4651;DHT22;2338;49.602;8.722;2023-05-07T11:11:49;23.10;63.80
4651;DHT22;2338;49.602;8.722;2023-05-07T11:14:43;22.80;63.20
4651;DHT22;2338;49.602;8.722;2023-05-07T11:17:29;22.70;64.60
4651;DHT22;2338;49.602;8.722;2023-05-07T11:20:17;22.60;63.20
4651;DHT22;2338;49.602;8.722;2023-05-07T11:23:02;22.50;62.90
4651;DHT22;2338;49.602;8.722;2023-05-07T11:25:48;22.40;65.70
4651;DHT22;2338;49.602;8.722;2023-05-07T11:28:36;22.30;65.20
4651;DHT22;2338;49.602;8.722;2023-05-07T11:31:24;22.40;69.30
4651;DHT22;2338;49.602;8.722;2023-05-07T11:34:11;22.50;65.90
4651;DHT22;2338;49.602;8.722;2023-05-07T11:36:58;22.60;66.50
4651;DHT22;2338;49.602;8.722;2023-05-07T11:39:44;22.90;68.30
4651;DHT22;2338;49.602;8.722;2023-05-07T11:42:31;23.20;63.60
4651;DHT22;2338;49.602;8.722;2023-05-07T11:45:23;23.40;63.80
4651;DHT22;2338;49.602;8.722;2023-05-07T11:48:08;23.60;60.80
4651;DHT22;2338;49.602;8.722;2023-05-07T11:51:00;23.70;54.30
4651;DHT22;2338;49.602;8.722;2023-05-07T11:53:47;23.60;54.80
4651;DHT22;2338;49.602;8.722;2023-05-07T11:56:34;23.60;57.50
4651;DHT22;2338;49.602;8.722;2023-05-07T11:59:20;23.70;60.30
4651;DHT22;2338;49.602;8.722;2023-05-07T12:02:05;23.90;58.50
4651;DHT22;2338;49.602;8.722;2023-05-07T12:04:51;24.10;52.60
4651;DHT22;2338;49.602;8.722;2023-05-07T12:07:37;24.40;60.90
4651;DHT22;2338;49.602;8.722;2023-05-07T12:10:24;24.60;44.50
4651;DHT22;2338;49.602;8.722;2023-05-07T12:13:14;24.70;44.60
4651;DHT22;2338;49.602;8.722;2023-05-07T12:15:59;24.70;48.80
4651;DHT22;2338;49.602;8.722;2023-05-07T12:18:47;24.70;42.00
4651;DHT22;2338;49.602;8.722;2023-05-07T12:21:33;24.60;39.50
4651;DHT22;2338;49.602;8.722;2023-05-07T12:24:19;24.40;42.20
4651;DHT22;2338;49.602;8.722;2023-05-07T12:27:06;24.40;44.30
4651;DHT22;2338;49.602;8.722;2023-05-07T12:29:52;24.50;44.40
4651;DHT22;2338;49.602;8.722;2023-05-07T12:32:37;24.70;48.30
4651;DHT22;2338;49.602;8.722;2023-05-07T12:35:27;24.90;45.70
4651;DHT22;2338;49.602;8.722;2023-05-07T12:38:13;24.90;37.60
4651;DHT22;2338;49.602;8.722;2023-05-07T12:41:00;24.80;39.00
4651;DHT22;2338;49.602;8.722;2023-05-07T12:43:47;24.70;42.10
4651;DHT22;2338;49.602;8.722;2023-05-07T12:46:38;24.60;44.40
4651;DHT22;2338;49.602;8.722;2023-05-07T12:49:24;24.70;39.80
4651;DHT22;2338;49.602;8.722;2023-05-07T12:52:11;24.90;46.00
4651;DHT22;2338;49.602;8.722;2023-05-07T12:54:56;25.00;40.40
4651;DHT22;2338;49.602;8.722;2023-05-07T12:57:43;25.10;36.70
4651;DHT22;2338;49.602;8.722;2023-05-07T13:00:34;25.30;40.00
4651;DHT22;2338;49.602;8.722;2023-05-07T13:03:24;25.50;38.00
4651;DHT22;2338;49.602;8.722;2023-05-07T13:06:10;25.70;40.60
4651;DHT22;2338;49.602;8.722;2023-05-07T13:08:56;26.00;34.10
4651;DHT22;2338;49.602;8.722;2023-05-07T13:11:41;26.10;31.40
4651;DHT22;2338;49.602;8.722;2023-05-07T13:14:27;26.00;29.60
4651;DHT22;2338;49.602;8.722;2023-05-07T13:17:13;25.70;29.60
4651;DHT22;2338;49.602;8.722;2023-05-07T13:19:59;25.50;31.00
4651;DHT22;2338;49.602;8.722;2023-05-07T13:22:45;25.30;32.40
4651;DHT22;2338;49.602;8.722;2023-05-07T13:25:30;25.00;33.20
4651;DHT22;2338;49.602;8.722;2023-05-07T13:28:15;24.90;37.70
4651;DHT22;2338;49.602;8.722;2023-05-07T13:31:01;24.70;38.40
4651;DHT22;2338;49.602;8.722;2023-05-07T13:33:48;24.80;40.90
4651;DHT22;2338;49.602;8.722;2023-05-07T13:36:33;24.70;40.50
4651;DHT22;2338;49.602;8.722;2023-05-07T13:39:21;24.70;40.90
4651;DHT22;2338;49.602;8.722;2023-05-07T13:42:06;24.60;39.40
4651;DHT22;2338;49.602;8.722;2023-05-07T13:44:52;24.40;39.50
4651;DHT22;2338;49.602;8.722;2023-05-07T13:47:37;24.30;41.60
4651;DHT22;2338;49.602;8.722;2023-05-07T13:50:24;24.10;39.20
4651;DHT22;2338;49.602;8.722;2023-05-07T13:53:11;24.00;40.90
4651;DHT22;2338;49.602;8.722;2023-05-07T13:55:56;23.90;43.40
4651;DHT22;2338;49.602;8.722;2023-05-07T13:58:42;23.70;43.50
4651;DHT22;2338;49.602;8.722;2023-05-07T14:01:27;23.60;45.70
4651;DHT22;2338;49.602;8.722;2023-05-07T14:04:13;23.50;48.00
4651;DHT22;2338;49.602;8.722;2023-05-07T14:07:00;23.40;51.20
4651;DHT22;2338;49.602;8.722;2023-05-07T14:09:45;23.30;52.90
4651;DHT22;2338;49.602;8.722;2023-05-07T14:12:31;23.20;53.20
4651;DHT22;2338;49.602;8.722;2023-05-07T14:15:17;23.10;51.70
4651;DHT22;2338;49.602;8.722;2023-05-07T14:18:03;23.00;53.50
4651;DHT22;2338;49.602;8.722;2023-05-07T14:20:49;22.90;56.40
4651;DHT22;2338;49.602;8.722;2023-05-07T14:23:35;22.80;56.30
4651;DHT22;2338;49.602;8.722;2023-05-07T14:26:21;22.70;56.20
4651;DHT22;2338;49.602;8.722;2023-05-07T14:29:07;22.70;57.20
4651;DHT22;2338;49.602;8.722;2023-05-07T14:31:52;22.50;59.20
4651;DHT22;2338;49.602;8.722;2023-05-07T14:34:38;22.40;60.30
4651;DHT22;2338;49.602;8.722;2023-05-07T14:37:24;22.30;60.30
4651;DHT22;2338;49.602;8.722;2023-05-07T14:40:11;22.30;60.50
4651;DHT22;2338;49.602;8.722;2023-05-07T14:42:57;22.20;60.60
4651;DHT22;2338;49.602;8.722;2023-05-07T14:45:42;22.20;62.50
4651;DHT22;2338;49.602;8.722;2023-05-07T14:48:28;22.10;66.60
4651;DHT22;2338;49.602;8.722;2023-05-07T14:51:14;22.00;65.00
4651;DHT22;2338;49.602;8.722;2023-05-07T14:53:59;21.90;65.40
4651;DHT22;2338;49.602;8.722;2023-05-07T14:56:47;21.80;75.10
4651;DHT22;2338;49.602;8.722;2023-05-07T14:59:32;21.50;77.40
4651;DHT22;2338;49.602;8.722;2023-05-07T15:02:18;21.20;90.00
4651;DHT22;2338;49.602;8.722;2023-05-07T15:05:05;20.80;98.40
4651;DHT22;2338;49.602;8.722;2023-05-07T15:07:50;20.30;99.90
4651;DHT22;2338;49.602;8.722;2023-05-07T15:10:37;20.00;99.90
4651;DHT22;2338;49.602;8.722;2023-05-07T15:13:26;19.50;99.90
4651;DHT22;2338;49.602;8.722;2023-05-07T15:16:11;19.00;99.90
4651;DHT22;2338;49.602;8.722;2023-05-07T15:18:57;18.60;99.90
4651;DHT22;2338;49.602;8.722;2023-05-07T15:21:42;18.40;99.90
4651;DHT22;2338;49.602;8.722;2023-05-07T15:24:28;18.30;99.90
4651;DHT22;2338;49.602;8.722;2023-05-07T15:27:14;18.10;99.90
4651;DHT22;2338;49.602;8.722;2023-05-07T15:30:01;17.90;99.90
4651;DHT22;2338;49.602;8.722;2023-05-07T15:32:48;17.80;99.90
4651;DHT22;2338;49.602;8.722;2023-05-07T15:35:34;17.40;99.90
4651;DHT22;2338;49.602;8.722;2023-05-07T15:38:19;17.00;99.90
4651;DHT22;2338;49.602;8.722;2023-05-07T15:41:05;17.00;99.90
4651;DHT22;2338;49.602;8.722;2023-05-07T15:43:52;17.00;99.90
4651;DHT22;2338;49.602;8.722;2023-05-07T15:46:38;16.90;99.90
4651;DHT22;2338;49.602;8.722;2023-05-07T15:49:24;16.90;99.90
4651;DHT22;2338;49.602;8.722;2023-05-07T15:52:10;16.90;99.90
4651;DHT22;2338;49.602;8.722;2023-05-07T15:54:57;16.80;99.90
4651;DHT22;2338;49.602;8.722;2023-05-07T15:57:42;16.90;99.90
4651;DHT22;2338;49.602;8.722;2023-05-07T16:00:28;17.00;99.90
4651;DHT22;2338;49.602;8.722;2023-05-07T16:03:15;17.10;99.90
4651;DHT22;2338;49.602;8.722;2023-05-07T16:06:01;17.10;99.90
4651;DHT22;2338;49.602;8.722;2023-05-07T16:08:47;17.10;99.90
4651;DHT22;2338;49.602;8.722;2023-05-07T16:11:32;17.10;99.90
4651;DHT22;2338;49.602;8.722;2023-05-07T16:14:18;17.10;99.90
4651;DHT22;2338;49.602;8.722;2023-05-07T16:17:03;17.10;99.90
4651;DHT22;2338;49.602;8.722;2023-05-07T16:19:50;17.10;99.90
4651;DHT22;2338;49.602;8.722;2023-05-07T16:22:36;17.00;99.90
4651;DHT22;2338;49.602;8.722;2023-05-07T16:25:21;17.10;99.90
4651;DHT22;2338;49.602;8.722;2023-05-07T16:28:07;17.10;99.90
4651;DHT22;2338;49.602;8.722;2023-05-07T16:30:52;17.20;99.90
4651;DHT22;2338;49.602;8.722;2023-05-07T16:33:38;17.20;99.90
4651;DHT22;2338;49.602;8.722;2023-05-07T16:36:27;17.20;99.90
4651;DHT22;2338;49.602;8.722;2023-05-07T16:39:13;17.10;99.90
4651;DHT22;2338;49.602;8.722;2023-05-07T16:41:58;17.10;99.90
4651;DHT22;2338;49.602;8.722;2023-05-07T16:44:44;17.00;99.90
4651;DHT22;2338;49.602;8.722;2023-05-07T16:47:30;17.00;99.90
4651;DHT22;2338;49.602;8.722;2023-05-07T16:50:16;17.00;99.90
4651;DHT22;2338;49.602;8.722;2023-05-07T16:53:04;17.00;99.90
4651;DHT22;2338;49.602;8.722;2023-05-07T16:55:49;17.00;99.90
4651;DHT22;2338;49.602;8.722;2023-05-07T16:58:39;17.00;99.90
4651;DHT22;2338;49.602;8.722;2023-05-07T17:01:24;17.00;99.90
4651;DHT22;2338;49.602;8.722;2023-05-07T17:04:10;17.00;99.90
4651;DHT22;2338;49.602;8.722;2023-05-07T17:06:55;16.90;99.90
4651;DHT22;2338;49.602;8.722;2023-05-07T17:09:41;17.00;99.90
4651;DHT22;2338;49.602;8.722;2023-05-07T17:12:27;17.00;99.90
4651;DHT22;2338;49.602;8.722;2023-05-07T17:15:14;16.90;99.90
4651;DHT22;2338;49.602;8.722;2023-05-07T17:17:59;16.90;99.90
4651;DHT22;2338;49.602;8.722;2023-05-07T17:20:45;16.90;99.90
4651;DHT22;2338;49.602;8.722;2023-05-07T17:23:30;16.80;99.90
4651;DHT22;2338;49.602;8.722;2023-05-07T17:26:17;16.80;99.90
4651;DHT22;2338;49.602;8.722;2023-05-07T17:29:03;16.80;99.90
4651;DHT22;2338;49.602;8.722;2023-05-07T17:31:48;16.80;99.90
4651;DHT22;2338;49.602;8.722;2023-05-07T17:34:34;16.80;99.90
4651;DHT22;2338;49.602;8.722;2023-05-07T17:37:19;16.90;99.90
4651;DHT22;2338;49.602;8.722;2023-05-07T17:40:06;16.80;99.90
4651;DHT22;2338;49.602;8.722;2023-05-07T17:42:53;16.90;99.90
4651;DHT22;2338;49.602;8.722;2023-05-07T17:45:39;16.80;99.90
4651;DHT22;2338;49.602;8.722;2023-05-07T17:48:24;16.90;99.90
4651;DHT22;2338;49.602;8.722;2023-05-07T17:51:09;16.80;99.90
4651;DHT22;2338;49.602;8.722;2023-05-07T17:53:55;16.80;99.90
4651;DHT22;2338;49.602;8.722;2023-05-07T17:56:40;16.80;99.90
4651;DHT22;2338;49.602;8.722;2023-05-07T17:59:27;16.70;99.90
4651;DHT22;2338;49.602;8.722;2023-05-07T18:02:12;16.70;99.90
4651;DHT22;2338;49.602;8.722;2023-05-07T18:04:58;16.70;99.90